Chrisopigi Lady — A8EQ9 — position and weather

sailwx.info

Track history (hours):
 
Tides and Currents Weather Stations Pressure Air Temp Water Temp Dewpoint Dewpoint Depression Visibility Wind Speed Wind Dir Waves Ship Positions

Chrisopigi Lady

Last reported at 2017-Mar-14 06:14 UTC. Time now 2017-Mar-23 04:23 UTC.
Position N 36°21' E 014°45'.
Warning: this ship's position is 8 days out of date.

Length 228 m; draft 11.7 m.

Type: Ship (hazmat cat A). MMSI: 636012314.

Date/timePositionNaut miles runAvg speedWind from/ knotsBaromVisibWave heightAir tempDewpointWater temp
2017-Mar-14 06:14N 36°21' E 014°45'811.3
2017-Mar-14 05:33N 36°23' E 014°35'1111.4
2017-Mar-14 04:33N 36°26' E 014°22'1111.3
2017-Mar-14 03:33N 36°29' E 014°08'1111.4
2017-Mar-14 02:33N 36°33' E 013°55'7811.2
2017-Mar-13 19:33N 36°55' E 012°21'43912.4
2017-Mar-12 08:10N 37°21' E 003°12'813.5
2017-Mar-12 07:33N 37°19' E 003°02'1413.5
2017-Mar-12 06:33N 37°16' E 002°45'3113.1
2017-Mar-12 04:13N 37°10' E 002°08'812.5
2017-Mar-12 03:34N 37°08' E 001°58'1312.7
2017-Mar-12 02:33N 37°05' E 001°42'1212.3
2017-Mar-12 01:33N 37°02' E 001°27'1212.5
2017-Mar-12 00:33N 36°60' E 001°12'1212.0
2017-Mar-11 23:33N 36°57' E 000°57'1212.3
2017-Mar-11 22:33N 36°54' E 000°42'1212.5
2017-Mar-11 21:33N 36°51' E 000°27'1212.5
2017-Mar-11 20:34N 36°49' E 000°12'1212.1
2017-Mar-11 19:33N 36°45' W 000°03'1211.9
2017-Mar-11 18:33N 36°41' W 000°17'2 1.8
2017-Mar-11 17:33N 36°43' W 000°18'1110.3
2017-Mar-11 16:30N 36°41' W 000°32'1211.9
2017-Mar-11 15:32N 36°38' W 000°46'2812.1
2017-Mar-11 13:12N 36°31' W 001°20'17912.2
2017-Mar-10 22:32N 36°07' W 004°60'1313.3
2017-Mar-10 21:33N 36°05' W 005°16'7 7.3
2017-Mar-10 20:33N 36°06' W 005°25'0 0.0
2017-Mar-10 19:31N 36°06' W 005°25'0 0.0
2017-Mar-10 18:28N 36°06' W 005°25'0 0.0
2017-Mar-10 17:34N 36°06' W 005°25'3 3.0
2017-Mar-10 16:33N 36°05' W 005°21'1 0.5
2017-Mar-10 15:34N 36°04' W 005°21'6 5.7
2017-Mar-10 14:34N 36°07' W 005°15'1 0.6
2017-Mar-10 13:34N 36°07' W 005°15'0 0.5
2017-Mar-10 12:31N 36°07' W 005°16'1 1.5
2017-Mar-10 11:33N 36°05' W 005°17'5 5.2
2017-Mar-10 10:33N 36°05' W 005°11'4 4.0
2017-Mar-10 09:30N 36°06' W 005°06'2 1.0
2017-Mar-10 07:32N 36°06' W 005°03'1 1.1
2017-Mar-10 06:17N 36°07' W 005°02'4 1.4
2017-Mar-10 03:33N 36°06' W 005°07'5 4.5
2017-Mar-10 02:34N 36°05' W 005°12'9 8.6
2017-Mar-10 01:34N 36°06' W 005°23'3 3.2
2017-Mar-10 00:34N 36°08' W 005°25'0 0.0
2017-Mar-09 23:32N 36°08' W 005°25'0 0.0
2017-Mar-09 22:32N 36°08' W 005°25'0 0.0
2017-Mar-09 21:32N 36°08' W 005°25'0 0.0
2017-Mar-09 20:32N 36°08' W 005°25'0 0.0
2017-Mar-09 19:32N 36°08' W 005°25'0 0.0
2017-Mar-08 16:31N 36°08' W 005°25'0 0.0
2017-Mar-08 14:07N 36°08' W 005°25'0 0.0
2017-Mar-08 13:25N 36°08' W 005°25'0 0.0
2017-Mar-08 12:31N 36°08' W 005°25'0 0.0
2017-Mar-08 11:07N 36°08' W 005°25'0 0.0
2017-Mar-08 10:10N 36°08' W 005°25'0 0.0
2017-Mar-08 09:31N 36°08' W 005°25'0 0.0
2017-Mar-08 07:16N 36°08' W 005°25'0 0.0
2017-Mar-08 06:19N 36°08' W 005°25'0 0.0
2017-Mar-08 05:16N 36°08' W 005°25'0 0.0
2017-Mar-08 04:22N 36°08' W 005°25'0 0.0
2017-Mar-08 03:31N 36°08' W 005°25'0 0.0
2017-Mar-08 02:31N 36°08' W 005°25'0 0.0
2017-Mar-08 01:31N 36°08' W 005°25'0 0.0
2017-Mar-08 00:31N 36°08' W 005°25'0 0.0
2017-Mar-07 23:31N 36°08' W 005°25'0 0.0
2017-Mar-07 22:31N 36°08' W 005°25'0 0.0
2017-Mar-07 21:25N 36°08' W 005°25'0 0.0
2017-Mar-07 20:31N 36°08' W 005°25'0 0.0
2017-Mar-07 17:28N 36°08' W 005°25'0 0.0
2017-Mar-07 16:25N 36°08' W 005°25'0 0.0
2017-Mar-07 15:16N 36°08' W 005°25'0 0.0
2017-Mar-07 14:22N 36°08' W 005°25'0 0.0
2017-Mar-07 11:13N 36°08' W 005°25'0 0.0
2017-Mar-07 10:34N 36°08' W 005°25'0 0.0
2017-Mar-07 09:24N 36°08' W 005°25'0 0.0
2017-Mar-07 08:33N 36°08' W 005°25'0 0.0
2017-Mar-07 07:30N 36°08' W 005°25'0 0.0
2017-Mar-07 06:33N 36°08' W 005°25'0 0.0
2017-Mar-07 05:33N 36°08' W 005°25'0 0.0
2017-Mar-07 04:30N 36°08' W 005°25'0 0.0
2017-Mar-07 03:27N 36°08' W 005°25'0 0.0
2017-Mar-07 02:30N 36°08' W 005°25'0 0.0
2017-Mar-07 01:33N 36°08' W 005°25'0 0.0
2017-Mar-07 00:33N 36°08' W 005°25'0 0.0
2017-Mar-06 23:30N 36°08' W 005°25'0 0.0
2017-Mar-06 22:30N 36°08' W 005°25'0 0.0
2017-Mar-06 21:33N 36°08' W 005°25'0 0.0
2017-Mar-06 20:33N 36°08' W 005°25'0 0.0
2017-Mar-06 19:27N 36°08' W 005°25'0 0.0
2017-Mar-06 18:33N 36°08' W 005°25'0 0.0
2017-Mar-06 17:30N 36°08' W 005°25'0 0.0
2017-Mar-06 16:30N 36°08' W 005°25'0 0.0
2017-Mar-06 15:33N 36°08' W 005°25'0 0.0
2017-Mar-06 14:33N 36°08' W 005°25'0 0.0
2017-Mar-06 13:33N 36°08' W 005°25'0 0.0
2017-Mar-06 12:30N 36°08' W 005°25'0 0.0
2017-Mar-06 11:15N 36°08' W 005°25'0 0.0
2017-Mar-06 10:33N 36°08' W 005°25'0 0.0
2017-Mar-06 09:06N 36°08' W 005°25'0 0.0
2017-Mar-06 08:30N 36°08' W 005°25'0 0.0
2017-Mar-06 07:30N 36°08' W 005°25'0 0.0
2017-Mar-06 06:30N 36°08' W 005°25'0 0.0
2017-Mar-06 05:21N 36°08' W 005°25'0 0.0
2017-Mar-06 04:27N 36°08' W 005°25'0 0.0
2017-Mar-06 03:30N 36°08' W 005°25'0 0.0
2017-Mar-06 02:27N 36°08' W 005°25'0 0.0
2017-Mar-06 01:21N 36°08' W 005°25'0 0.0
2017-Mar-06 00:33N 36°08' W 005°25'0 0.0
2017-Mar-05 23:33N 36°08' W 005°25'0 0.0
2017-Mar-05 22:32N 36°08' W 005°25'0 0.0
2017-Mar-05 21:32N 36°08' W 005°25'0 0.0
2017-Mar-05 20:32N 36°08' W 005°25'0 0.0
2017-Mar-05 19:20N 36°08' W 005°25'1 1.9
2017-Mar-05 18:34N 36°07' W 005°23'2 2.5
2017-Mar-05 17:33N 36°05' W 005°22'2 1.7
2017-Mar-05 16:34N 36°04' W 005°22'3 2.9
2017-Mar-05 15:34N 36°01' W 005°22'4 4.3
2017-Mar-05 14:33N 35°58' W 005°26'6 5.8
2017-Mar-05 13:34N 35°56' W 005°33'6 6.1
2017-Mar-05 12:33N 35°56' W 005°40'  
Track history (hours):
 
Tides and Currents Weather Stations Pressure Air Temp Water Temp Dewpoint Dewpoint Depression Visibility Wind Speed Wind Dir Waves Ship Positions

Chrisopigi Lady

Last reported at 2017-Mar-14 06:14 UTC. Time now 2017-Mar-23 04:23 UTC.
Position N 36°21' E 014°45'.
Warning: this ship's position is 8 days out of date.

Length 228 m; draft 11.7 m.

Type: Ship (hazmat cat A). MMSI: 636012314.

Date/timePositionNaut miles runAvg speedWind from/ knotsBaromVisibWave heightAir tempDewpointWater temp
2017-Mar-14 06:14N 36°21' E 014°45'811.3
2017-Mar-14 05:33N 36°23' E 014°35'1111.4
2017-Mar-14 04:33N 36°26' E 014°22'1111.3
2017-Mar-14 03:33N 36°29' E 014°08'1111.4
2017-Mar-14 02:33N 36°33' E 013°55'7811.2
2017-Mar-13 19:33N 36°55' E 012°21'43912.4
2017-Mar-12 08:10N 37°21' E 003°12'813.5
2017-Mar-12 07:33N 37°19' E 003°02'1413.5
2017-Mar-12 06:33N 37°16' E 002°45'3113.1
2017-Mar-12 04:13N 37°10' E 002°08'812.5
2017-Mar-12 03:34N 37°08' E 001°58'1312.7
2017-Mar-12 02:33N 37°05' E 001°42'1212.3
2017-Mar-12 01:33N 37°02' E 001°27'1212.5
2017-Mar-12 00:33N 36°60' E 001°12'1212.0
2017-Mar-11 23:33N 36°57' E 000°57'1212.3
2017-Mar-11 22:33N 36°54' E 000°42'1212.5
2017-Mar-11 21:33N 36°51' E 000°27'1212.5
2017-Mar-11 20:34N 36°49' E 000°12'1212.1
2017-Mar-11 19:33N 36°45' W 000°03'1211.9
2017-Mar-11 18:33N 36°41' W 000°17'2 1.8
2017-Mar-11 17:33N 36°43' W 000°18'1110.3
2017-Mar-11 16:30N 36°41' W 000°32'1211.9
2017-Mar-11 15:32N 36°38' W 000°46'2812.1
2017-Mar-11 13:12N 36°31' W 001°20'17912.2
2017-Mar-10 22:32N 36°07' W 004°60'1313.3
2017-Mar-10 21:33N 36°05' W 005°16'7 7.3
2017-Mar-10 20:33N 36°06' W 005°25'0 0.0
2017-Mar-10 19:31N 36°06' W 005°25'0 0.0
2017-Mar-10 18:28N 36°06' W 005°25'0 0.0
2017-Mar-10 17:34N 36°06' W 005°25'3 3.0
2017-Mar-10 16:33N 36°05' W 005°21'1 0.5
2017-Mar-10 15:34N 36°04' W 005°21'6 5.7
2017-Mar-10 14:34N 36°07' W 005°15'1 0.6
2017-Mar-10 13:34N 36°07' W 005°15'0 0.5
2017-Mar-10 12:31N 36°07' W 005°16'1 1.5
2017-Mar-10 11:33N 36°05' W 005°17'5 5.2
2017-Mar-10 10:33N 36°05' W 005°11'4 4.0
2017-Mar-10 09:30N 36°06' W 005°06'2 1.0
2017-Mar-10 07:32N 36°06' W 005°03'1 1.1
2017-Mar-10 06:17N 36°07' W 005°02'4 1.4
2017-Mar-10 03:33N 36°06' W 005°07'5 4.5
2017-Mar-10 02:34N 36°05' W 005°12'9 8.6
2017-Mar-10 01:34N 36°06' W 005°23'3 3.2
2017-Mar-10 00:34N 36°08' W 005°25'0 0.0
2017-Mar-09 23:32N 36°08' W 005°25'0 0.0
2017-Mar-09 22:32N 36°08' W 005°25'0 0.0
2017-Mar-09 21:32N 36°08' W 005°25'0 0.0
2017-Mar-09 20:32N 36°08' W 005°25'0 0.0
2017-Mar-09 19:32N 36°08' W 005°25'0 0.0
2017-Mar-08 16:31N 36°08' W 005°25'0 0.0
2017-Mar-08 14:07N 36°08' W 005°25'0 0.0
2017-Mar-08 13:25N 36°08' W 005°25'0 0.0
2017-Mar-08 12:31N 36°08' W 005°25'0 0.0
2017-Mar-08 11:07N 36°08' W 005°25'0 0.0
2017-Mar-08 10:10N 36°08' W 005°25'0 0.0
2017-Mar-08 09:31N 36°08' W 005°25'0 0.0
2017-Mar-08 07:16N 36°08' W 005°25'0 0.0
2017-Mar-08 06:19N 36°08' W 005°25'0 0.0
2017-Mar-08 05:16N 36°08' W 005°25'0 0.0
2017-Mar-08 04:22N 36°08' W 005°25'0 0.0
2017-Mar-08 03:31N 36°08' W 005°25'0 0.0
2017-Mar-08 02:31N 36°08' W 005°25'0 0.0
2017-Mar-08 01:31N 36°08' W 005°25'0 0.0
2017-Mar-08 00:31N 36°08' W 005°25'0 0.0
2017-Mar-07 23:31N 36°08' W 005°25'0 0.0
2017-Mar-07 22:31N 36°08' W 005°25'0 0.0
2017-Mar-07 21:25N 36°08' W 005°25'0 0.0
2017-Mar-07 20:31N 36°08' W 005°25'0 0.0
2017-Mar-07 17:28N 36°08' W 005°25'0 0.0
2017-Mar-07 16:25N 36°08' W 005°25'0 0.0
2017-Mar-07 15:16N 36°08' W 005°25'0 0.0
2017-Mar-07 14:22N 36°08' W 005°25'0 0.0
2017-Mar-07 11:13N 36°08' W 005°25'0 0.0
2017-Mar-07 10:34N 36°08' W 005°25'0 0.0
2017-Mar-07 09:24N 36°08' W 005°25'0 0.0
2017-Mar-07 08:33N 36°08' W 005°25'0 0.0
2017-Mar-07 07:30N 36°08' W 005°25'0 0.0
2017-Mar-07 06:33N 36°08' W 005°25'0 0.0
2017-Mar-07 05:33N 36°08' W 005°25'0 0.0
2017-Mar-07 04:30N 36°08' W 005°25'0 0.0
2017-Mar-07 03:27N 36°08' W 005°25'0 0.0
2017-Mar-07 02:30N 36°08' W 005°25'0 0.0
2017-Mar-07 01:33N 36°08' W 005°25'0 0.0
2017-Mar-07 00:33N 36°08' W 005°25'0 0.0
2017-Mar-06 23:30N 36°08' W 005°25'0 0.0
2017-Mar-06 22:30N 36°08' W 005°25'0 0.0
2017-Mar-06 21:33N 36°08' W 005°25'0 0.0
2017-Mar-06 20:33N 36°08' W 005°25'0 0.0
2017-Mar-06 19:27N 36°08' W 005°25'0 0.0
2017-Mar-06 18:33N 36°08' W 005°25'0 0.0
2017-Mar-06 17:30N 36°08' W 005°25'0 0.0
2017-Mar-06 16:30N 36°08' W 005°25'0 0.0
2017-Mar-06 15:33N 36°08' W 005°25'0 0.0
2017-Mar-06 14:33N 36°08' W 005°25'0 0.0
2017-Mar-06 13:33N 36°08' W 005°25'0 0.0
2017-Mar-06 12:30N 36°08' W 005°25'0 0.0
2017-Mar-06 11:15N 36°08' W 005°25'0 0.0
2017-Mar-06 10:33N 36°08' W 005°25'0 0.0
2017-Mar-06 09:06N 36°08' W 005°25'0 0.0
2017-Mar-06 08:30N 36°08' W 005°25'0 0.0
2017-Mar-06 07:30N 36°08' W 005°25'0 0.0
2017-Mar-06 06:30N 36°08' W 005°25'0 0.0
2017-Mar-06 05:21N 36°08' W 005°25'0 0.0
2017-Mar-06 04:27N 36°08' W 005°25'0 0.0
2017-Mar-06 03:30N 36°08' W 005°25'0 0.0
2017-Mar-06 02:27N 36°08' W 005°25'0 0.0
2017-Mar-06 01:21N 36°08' W 005°25'0 0.0
2017-Mar-06 00:33N 36°08' W 005°25'0 0.0
2017-Mar-05 23:33N 36°08' W 005°25'0 0.0
2017-Mar-05 22:32N 36°08' W 005°25'0 0.0
2017-Mar-05 21:32N 36°08' W 005°25'0 0.0
2017-Mar-05 20:32N 36°08' W 005°25'0 0.0
2017-Mar-05 19:20N 36°08' W 005°25'1 1.9
2017-Mar-05 18:34N 36°07' W 005°23'2 2.5
2017-Mar-05 17:33N 36°05' W 005°22'2 1.7
2017-Mar-05 16:34N 36°04' W 005°22'3 2.9
2017-Mar-05 15:34N 36°01' W 005°22'4 4.3
2017-Mar-05 14:33N 35°58' W 005°26'6 5.8
2017-Mar-05 13:34N 35°56' W 005°33'6 6.1
2017-Mar-05 12:33N 35°56' W 005°40'  

Dump ship's entire track history